sensor_id;sensor_type;location;lat;lon;timestamp;temperature;humidity
1702;DHT22;848;48.354;10.064;2024-03-06T00:01:19;7.20;99.90
1702;DHT22;848;48.354;10.064;2024-03-06T00:03:45;7.30;99.90
1702;DHT22;848;48.354;10.064;2024-03-06T00:06:12;7.30;99.90
1702;DHT22;848;48.354;10.064;2024-03-06T00:08:41;7.30;99.90
1702;DHT22;848;48.354;10.064;2024-03-06T00:11:07;7.30;99.90
1702;DHT22;848;48.354;10.064;2024-03-06T00:13:34;7.40;99.90
1702;DHT22;848;48.354;10.064;2024-03-06T00:16:01;7.30;99.90
1702;DHT22;848;48.354;10.064;2024-03-06T00:18:28;7.30;99.90
1702;DHT22;848;48.354;10.064;2024-03-06T00:20:55;7.30;99.90
1702;DHT22;848;48.354;10.064;2024-03-06T00:23:22;7.30;99.90
1702;DHT22;848;48.354;10.064;2024-03-06T00:25:50;7.20;99.90
1702;DHT22;848;48.354;10.064;2024-03-06T00:28:17;7.30;99.90
1702;DHT22;848;48.354;10.064;2024-03-06T00:30:44;7.20;99.90
1702;DHT22;848;48.354;10.064;2024-03-06T00:33:10;7.20;99.90
1702;DHT22;848;48.354;10.064;2024-03-06T00:35:37;7.20;99.90
1702;DHT22;848;48.354;10.064;2024-03-06T00:38:04;7.30;99.90
1702;DHT22;848;48.354;10.064;2024-03-06T00:40:32;7.10;99.90
1702;DHT22;848;48.354;10.064;2024-03-06T00:43:00;7.20;99.90
1702;DHT22;848;48.354;10.064;2024-03-06T00:45:27;7.10;99.90
1702;DHT22;848;48.354;10.064;2024-03-06T00:47:53;7.10;99.90
1702;DHT22;848;48.354;10.064;2024-03-06T00:50:20;7.10;99.90
1702;DHT22;848;48.354;10.064;2024-03-06T00:55:07;7.20;99.90
1702;DHT22;848;48.354;10.064;2024-03-06T00:57:34;7.20;99.90
1702;DHT22;848;48.354;10.064;2024-03-06T01:00:01;7.20;99.90
1702;DHT22;848;48.354;10.064;2024-03-06T01:02:31;7.20;99.90
1702;DHT22;848;48.354;10.064;2024-03-06T01:04:58;7.20;99.90
1702;DHT22;848;48.354;10.064;2024-03-06T01:07:25;7.20;99.90
1702;DHT22;848;48.354;10.064;2024-03-06T01:09:52;7.40;99.90
1702;DHT22;848;48.354;10.064;2024-03-06T01:12:20;7.40;99.90
1702;DHT22;848;48.354;10.064;2024-03-06T01:14:47;7.40;99.90
1702;DHT22;848;48.354;10.064;2024-03-06T01:17:14;7.30;99.90
1702;DHT22;848;48.354;10.064;2024-03-06T01:19:40;7.30;99.90
1702;DHT22;848;48.354;10.064;2024-03-06T01:22:08;7.30;99.90
1702;DHT22;848;48.354;10.064;2024-03-06T01:24:36;7.30;99.90
1702;DHT22;848;48.354;10.064;2024-03-06T01:27:03;7.30;99.90
1702;DHT22;848;48.354;10.064;2024-03-06T01:29:31;7.30;99.90
1702;DHT22;848;48.354;10.064;2024-03-06T01:31:58;7.20;99.90
1702;DHT22;848;48.354;10.064;2024-03-06T01:34:25;7.20;99.90
1702;DHT22;848;48.354;10.064;2024-03-06T01:36:52;7.20;99.90
1702;DHT22;848;48.354;10.064;2024-03-06T01:39:19;7.30;99.90
1702;DHT22;848;48.354;10.064;2024-03-06T01:41:46;7.30;99.90
1702;DHT22;848;48.354;10.064;2024-03-06T01:44:14;7.40;99.90
1702;DHT22;848;48.354;10.064;2024-03-06T01:46:42;7.30;99.90
1702;DHT22;848;48.354;10.064;2024-03-06T01:49:11;7.40;99.90
1702;DHT22;848;48.354;10.064;2024-03-06T01:51:39;7.30;99.90
1702;DHT22;848;48.354;10.064;2024-03-06T01:54:06;7.30;99.90
1702;DHT22;848;48.354;10.064;2024-03-06T01:56:34;7.30;99.90
1702;DHT22;848;48.354;10.064;2024-03-06T01:59:02;7.30;99.90
1702;DHT22;848;48.354;10.064;2024-03-06T02:01:30;7.40;99.90
1702;DHT22;848;48.354;10.064;2024-03-06T02:03:59;7.40;99.90
1702;DHT22;848;48.354;10.064;2024-03-06T02:06:26;7.30;99.90
1702;DHT22;848;48.354;10.064;2024-03-06T02:08:53;7.30;99.90
1702;DHT22;848;48.354;10.064;2024-03-06T02:11:20;7.50;99.90
1702;DHT22;848;48.354;10.064;2024-03-06T02:13:48;7.30;99.90
1702;DHT22;848;48.354;10.064;2024-03-06T02:16:15;7.30;99.90
1702;DHT22;848;48.354;10.064;2024-03-06T02:18:51;7.30;99.90
1702;DHT22;848;48.354;10.064;2024-03-06T02:21:20;7.10;99.90
1702;DHT22;848;48.354;10.064;2024-03-06T02:23:47;7.00;99.90
1702;DHT22;848;48.354;10.064;2024-03-06T02:26:14;6.90;99.90
1702;DHT22;848;48.354;10.064;2024-03-06T02:28:46;6.90;99.90
1702;DHT22;848;48.354;10.064;2024-03-06T02:31:13;6.90;99.90
1702;DHT22;848;48.354;10.064;2024-03-06T02:33:40;6.90;99.90
1702;DHT22;848;48.354;10.064;2024-03-06T02:36:07;6.80;99.90
1702;DHT22;848;48.354;10.064;2024-03-06T02:38:35;6.70;99.90
1702;DHT22;848;48.354;10.064;2024-03-06T02:41:02;6.70;99.90
1702;DHT22;848;48.354;10.064;2024-03-06T02:43:29;6.70;99.90
1702;DHT22;848;48.354;10.064;2024-03-06T02:45:56;6.80;99.90
1702;DHT22;848;48.354;10.064;2024-03-06T02:48:23;6.80;99.90
1702;DHT22;848;48.354;10.064;2024-03-06T02:50:50;6.80;99.90
1702;DHT22;848;48.354;10.064;2024-03-06T02:53:17;6.70;99.90
1702;DHT22;848;48.354;10.064;2024-03-06T02:55:45;6.80;99.90
1702;DHT22;848;48.354;10.064;2024-03-06T02:58:12;6.80;99.90
1702;DHT22;848;48.354;10.064;2024-03-06T03:00:39;6.70;99.90
1702;DHT22;848;48.354;10.064;2024-03-06T03:03:06;6.60;99.90
1702;DHT22;848;48.354;10.064;2024-03-06T03:05:33;6.70;99.90
1702;DHT22;848;48.354;10.064;2024-03-06T03:08:00;6.50;99.90
1702;DHT22;848;48.354;10.064;2024-03-06T03:10:29;6.50;99.90
1702;DHT22;848;48.354;10.064;2024-03-06T03:12:57;6.50;99.90
1702;DHT22;848;48.354;10.064;2024-03-06T03:15:25;6.50;99.90
1702;DHT22;848;48.354;10.064;2024-03-06T03:17:52;6.50;99.90
1702;DHT22;848;48.354;10.064;2024-03-06T03:20:18;6.50;99.90
1702;DHT22;848;48.354;10.064;2024-03-06T03:22:46;6.50;99.90
1702;DHT22;848;48.354;10.064;2024-03-06T03:25:14;6.40;99.90
1702;DHT22;848;48.354;10.064;2024-03-06T03:27:41;6.30;99.90
1702;DHT22;848;48.354;10.064;2024-03-06T03:30:11;6.40;99.90
1702;DHT22;848;48.354;10.064;2024-03-06T03:32:38;6.40;99.90
1702;DHT22;848;48.354;10.064;2024-03-06T03:35:06;6.30;99.90
1702;DHT22;848;48.354;10.064;2024-03-06T03:37:33;6.30;99.90
1702;DHT22;848;48.354;10.064;2024-03-06T03:40:00;6.40;99.90
1702;DHT22;848;48.354;10.064;2024-03-06T03:42:28;6.30;99.90
1702;DHT22;848;48.354;10.064;2024-03-06T03:44:55;6.20;99.90
1702;DHT22;848;48.354;10.064;2024-03-06T03:47:23;6.30;99.90
1702;DHT22;848;48.354;10.064;2024-03-06T03:49:50;6.20;99.90
1702;DHT22;848;48.354;10.064;2024-03-06T03:52:17;6.20;99.90
1702;DHT22;848;48.354;10.064;2024-03-06T03:54:44;6.20;99.90
1702;DHT22;848;48.354;10.064;2024-03-06T03:57:11;6.20;99.90
1702;DHT22;848;48.354;10.064;2024-03-06T03:59:39;6.20;99.90
1702;DHT22;848;48.354;10.064;2024-03-06T04:02:06;6.20;99.90
1702;DHT22;848;48.354;10.064;2024-03-06T04:04:36;6.10;99.90
1702;DHT22;848;48.354;10.064;2024-03-06T04:07:03;6.00;99.90
1702;DHT22;848;48.354;10.064;2024-03-06T04:09:32;6.00;99.90
1702;DHT22;848;48.354;10.064;2024-03-06T04:12:01;6.00;99.90
1702;DHT22;848;48.354;10.064;2024-03-06T04:14:28;6.00;99.90
1702;DHT22;848;48.354;10.064;2024-03-06T04:16:55;6.10;99.90
1702;DHT22;848;48.354;10.064;2024-03-06T04:19:22;6.00;99.90
1702;DHT22;848;48.354;10.064;2024-03-06T04:21:50;6.00;99.90
1702;DHT22;848;48.354;10.064;2024-03-06T04:24:17;6.00;99.90
1702;DHT22;848;48.354;10.064;2024-03-06T04:26:44;6.00;99.90
1702;DHT22;848;48.354;10.064;2024-03-06T04:29:11;6.00;99.90
1702;DHT22;848;48.354;10.064;2024-03-06T04:31:38;6.10;99.90
1702;DHT22;848;48.354;10.064;2024-03-06T04:34:05;6.00;99.90
1702;DHT22;848;48.354;10.064;2024-03-06T04:36:32;6.00;99.90
1702;DHT22;848;48.354;10.064;2024-03-06T04:39:00;6.00;99.90
1702;DHT22;848;48.354;10.064;2024-03-06T04:41:27;6.00;99.90
1702;DHT22;848;48.354;10.064;2024-03-06T04:43:54;6.00;99.90
1702;DHT22;848;48.354;10.064;2024-03-06T04:46:23;6.10;99.90
1702;DHT22;848;48.354;10.064;2024-03-06T04:48:50;6.00;99.90
1702;DHT22;848;48.354;10.064;2024-03-06T04:51:17;6.00;99.90
1702;DHT22;848;48.354;10.064;2024-03-06T04:53:45;5.90;99.90
1702;DHT22;848;48.354;10.064;2024-03-06T04:56:13;6.00;99.90
1702;DHT22;848;48.354;10.064;2024-03-06T04:58:41;6.00;99.90
1702;DHT22;848;48.354;10.064;2024-03-06T05:01:11;5.90;99.90
1702;DHT22;848;48.354;10.064;2024-03-06T05:03:37;5.90;99.90
1702;DHT22;848;48.354;10.064;2024-03-06T05:06:05;5.90;99.90
1702;DHT22;848;48.354;10.064;2024-03-06T05:08:32;5.90;99.90
1702;DHT22;848;48.354;10.064;2024-03-06T05:11:00;5.90;99.90
1702;DHT22;848;48.354;10.064;2024-03-06T05:13:28;5.90;99.90
1702;DHT22;848;48.354;10.064;2024-03-06T05:15:55;5.90;99.90
1702;DHT22;848;48.354;10.064;2024-03-06T05:18:22;5.90;99.90
1702;DHT22;848;48.354;10.064;2024-03-06T05:20:49;5.90;99.90
1702;DHT22;848;48.354;10.064;2024-03-06T05:23:16;5.90;99.90
1702;DHT22;848;48.354;10.064;2024-03-06T05:25:43;5.80;99.90
1702;DHT22;848;48.354;10.064;2024-03-06T05:28:10;5.80;99.90
1702;DHT22;848;48.354;10.064;2024-03-06T05:30:38;5.70;99.90
1702;DHT22;848;48.354;10.064;2024-03-06T05:33:05;5.90;99.90
1702;DHT22;848;48.354;10.064;2024-03-06T05:35:32;5.80;99.90
1702;DHT22;848;48.354;10.064;2024-03-06T05:37:59;6.00;99.90
1702;DHT22;848;48.354;10.064;2024-03-06T05:40:25;5.80;99.90
1702;DHT22;848;48.354;10.064;2024-03-06T05:42:52;5.80;99.90
1702;DHT22;848;48.354;10.064;2024-03-06T05:45:19;5.80;99.90
1702;DHT22;848;48.354;10.064;2024-03-06T05:47:47;5.80;99.90
1702;DHT22;848;48.354;10.064;2024-03-06T05:50:15;5.80;99.90
1702;DHT22;848;48.354;10.064;2024-03-06T05:52:42;5.80;99.90
1702;DHT22;848;48.354;10.064;2024-03-06T05:55:09;5.70;99.90
1702;DHT22;848;48.354;10.064;2024-03-06T05:57:36;5.90;99.90
1702;DHT22;848;48.354;10.064;2024-03-06T06:00:04;5.70;99.90
1702;DHT22;848;48.354;10.064;2024-03-06T06:02:36;5.70;99.90
1702;DHT22;848;48.354;10.064;2024-03-06T06:05:06;5.90;99.90
1702;DHT22;848;48.354;10.064;2024-03-06T06:07:33;5.60;99.90
1702;DHT22;848;48.354;10.064;2024-03-06T06:10:00;5.60;99.90
1702;DHT22;848;48.354;10.064;2024-03-06T06:12:27;5.60;99.90
1702;DHT22;848;48.354;10.064;2024-03-06T06:14:54;5.60;99.90
1702;DHT22;848;48.354;10.064;2024-03-06T06:17:21;5.60;99.90
1702;DHT22;848;48.354;10.064;2024-03-06T06:19:48;5.60;99.90
1702;DHT22;848;48.354;10.064;2024-03-06T06:22:16;5.70;99.90
1702;DHT22;848;48.354;10.064;2024-03-06T06:24:43;5.80;99.90
1702;DHT22;848;48.354;10.064;2024-03-06T06:27:11;5.60;99.90
1702;DHT22;848;48.354;10.064;2024-03-06T06:29:38;5.60;99.90
1702;DHT22;848;48.354;10.064;2024-03-06T06:32:05;5.60;99.90
1702;DHT22;848;48.354;10.064;2024-03-06T06:34:31;5.60;99.90
1702;DHT22;848;48.354;10.064;2024-03-06T06:36:58;5.60;99.90
1702;DHT22;848;48.354;10.064;2024-03-06T06:39:27;5.70;99.90
1702;DHT22;848;48.354;10.064;2024-03-06T06:41:57;5.60;99.90
1702;DHT22;848;48.354;10.064;2024-03-06T06:44:24;5.70;99.90
1702;DHT22;848;48.354;10.064;2024-03-06T06:46:51;5.60;99.90
1702;DHT22;848;48.354;10.064;2024-03-06T06:49:17;5.70;99.90
1702;DHT22;848;48.354;10.064;2024-03-06T06:51:44;5.70;99.90
1702;DHT22;848;48.354;10.064;2024-03-06T06:54:11;5.70;99.90
1702;DHT22;848;48.354;10.064;2024-03-06T06:56:39;5.70;99.90
1702;DHT22;848;48.354;10.064;2024-03-06T06:59:06;5.70;99.90
1702;DHT22;848;48.354;10.064;2024-03-06T07:01:33;5.70;99.90
1702;DHT22;848;48.354;10.064;2024-03-06T07:04:01;5.80;99.90
1702;DHT22;848;48.354;10.064;2024-03-06T07:06:28;5.80;99.90
1702;DHT22;848;48.354;10.064;2024-03-06T07:08:55;5.80;99.90
1702;DHT22;848;48.354;10.064;2024-03-06T07:11:22;5.80;99.90
1702;DHT22;848;48.354;10.064;2024-03-06T07:13:51;5.80;99.90
1702;DHT22;848;48.354;10.064;2024-03-06T07:16:17;5.80;99.90
1702;DHT22;848;48.354;10.064;2024-03-06T07:18:44;5.80;99.90
1702;DHT22;848;48.354;10.064;2024-03-06T07:21:12;6.00;99.90
1702;DHT22;848;48.354;10.064;2024-03-06T07:23:39;6.00;99.90
1702;DHT22;848;48.354;10.064;2024-03-06T07:26:05;5.70;99.90
1702;DHT22;848;48.354;10.064;2024-03-06T07:28:32;5.80;99.90
1702;DHT22;848;48.354;10.064;2024-03-06T07:31:00;5.80;99.90
1702;DHT22;848;48.354;10.064;2024-03-06T07:33:28;5.80;99.90
1702;DHT22;848;48.354;10.064;2024-03-06T07:35:56;5.90;99.90
1702;DHT22;848;48.354;10.064;2024-03-06T07:38:23;5.90;99.90
1702;DHT22;848;48.354;10.064;2024-03-06T07:40:50;6.00;99.90
1702;DHT22;848;48.354;10.064;2024-03-06T07:43:17;6.20;99.90
1702;DHT22;848;48.354;10.064;2024-03-06T07:45:44;6.10;99.90
1702;DHT22;848;48.354;10.064;2024-03-06T07:48:14;6.20;99.90
1702;DHT22;848;48.354;10.064;2024-03-06T07:50:41;6.30;99.90
1702;DHT22;848;48.354;10.064;2024-03-06T07:53:08;6.20;99.90
1702;DHT22;848;48.354;10.064;2024-03-06T07:55:35;6.30;99.90
1702;DHT22;848;48.354;10.064;2024-03-06T07:58:02;6.40;99.90
1702;DHT22;848;48.354;10.064;2024-03-06T08:00:28;6.40;99.90
1702;DHT22;848;48.354;10.064;2024-03-06T08:02:57;6.40;99.90
1702;DHT22;848;48.354;10.064;2024-03-06T08:05:26;6.50;99.90
1702;DHT22;848;48.354;10.064;2024-03-06T08:07:53;6.20;99.90
1702;DHT22;848;48.354;10.064;2024-03-06T08:10:20;6.00;99.90
1702;DHT22;848;48.354;10.064;2024-03-06T08:12:47;5.90;99.90
1702;DHT22;848;48.354;10.064;2024-03-06T08:15:14;5.90;99.90
1702;DHT22;848;48.354;10.064;2024-03-06T08:17:42;6.10;99.90
1702;DHT22;848;48.354;10.064;2024-03-06T08:20:10;6.10;99.90
1702;DHT22;848;48.354;10.064;2024-03-06T08:22:40;6.10;99.90
1702;DHT22;848;48.354;10.064;2024-03-06T08:25:07;6.10;99.90
1702;DHT22;848;48.354;10.064;2024-03-06T08:27:35;6.10;99.90
1702;DHT22;848;48.354;10.064;2024-03-06T08:30:03;6.10;99.90
1702;DHT22;848;48.354;10.064;2024-03-06T08:32:31;6.20;99.90
1702;DHT22;848;48.354;10.064;2024-03-06T08:34:58;6.20;99.90
1702;DHT22;848;48.354;10.064;2024-03-06T08:37:25;6.10;99.90
1702;DHT22;848;48.354;10.064;2024-03-06T08:39:53;6.10;99.90
1702;DHT22;848;48.354;10.064;2024-03-06T08:42:20;6.00;99.90
1702;DHT22;848;48.354;10.064;2024-03-06T08:44:47;6.00;99.90
1702;DHT22;848;48.354;10.064;2024-03-06T08:47:15;5.90;99.90
1702;DHT22;848;48.354;10.064;2024-03-06T08:49:41;5.90;99.90
1702;DHT22;848;48.354;10.064;2024-03-06T08:52:08;5.80;99.90
1702;DHT22;848;48.354;10.064;2024-03-06T08:54:36;5.90;99.90
1702;DHT22;848;48.354;10.064;2024-03-06T08:57:05;6.10;99.90
1702;DHT22;848;48.354;10.064;2024-03-06T08:59:32;6.20;99.90
1702;DHT22;848;48.354;10.064;2024-03-06T09:01:58;6.30;99.90
1702;DHT22;848;48.354;10.064;2024-03-06T09:04:38;6.30;99.90
1702;DHT22;848;48.354;10.064;2024-03-06T09:07:04;6.40;99.90
1702;DHT22;848;48.354;10.064;2024-03-06T09:09:31;6.40;99.90
1702;DHT22;848;48.354;10.064;2024-03-06T09:11:59;6.50;99.90
1702;DHT22;848;48.354;10.064;2024-03-06T09:14:27;6.60;99.90
1702;DHT22;848;48.354;10.064;2024-03-06T09:16:54;6.60;99.90
1702;DHT22;848;48.354;10.064;2024-03-06T09:19:21;6.60;99.90
1702;DHT22;848;48.354;10.064;2024-03-06T09:21:48;6.60;99.90
1702;DHT22;848;48.354;10.064;2024-03-06T09:24:15;6.60;99.90
1702;DHT22;848;48.354;10.064;2024-03-06T09:26:44;6.70;99.90
1702;DHT22;848;48.354;10.064;2024-03-06T09:29:10;6.80;99.90
1702;DHT22;848;48.354;10.064;2024-03-06T09:31:39;7.10;99.90
1702;DHT22;848;48.354;10.064;2024-03-06T09:34:05;7.10;99.90
1702;DHT22;848;48.354;10.064;2024-03-06T09:36:32;7.10;99.90
1702;DHT22;848;48.354;10.064;2024-03-06T09:39:00;7.20;99.90
1702;DHT22;848;48.354;10.064;2024-03-06T09:41:30;7.30;99.90
1702;DHT22;848;48.354;10.064;2024-03-06T09:43:58;7.30;99.90
1702;DHT22;848;48.354;10.064;2024-03-06T09:46:26;7.40;99.90
1702;DHT22;848;48.354;10.064;2024-03-06T09:48:55;7.40;99.90
1702;DHT22;848;48.354;10.064;2024-03-06T09:51:22;7.40;99.90
1702;DHT22;848;48.354;10.064;2024-03-06T09:53:49;7.60;99.90
1702;DHT22;848;48.354;10.064;2024-03-06T09:56:19;7.40;99.90
1702;DHT22;848;48.354;10.064;2024-03-06T09:58:46;7.40;99.90
1702;DHT22;848;48.354;10.064;2024-03-06T10:01:14;7.30;99.90
1702;DHT22;848;48.354;10.064;2024-03-06T10:03:42;7.30;99.90
1702;DHT22;848;48.354;10.064;2024-03-06T10:06:13;7.40;99.90
1702;DHT22;848;48.354;10.064;2024-03-06T10:08:42;7.40;99.90
1702;DHT22;848;48.354;10.064;2024-03-06T10:11:10;7.40;99.90
1702;DHT22;848;48.354;10.064;2024-03-06T10:13:37;7.40;99.90
1702;DHT22;848;48.354;10.064;2024-03-06T10:16:05;7.40;99.90
1702;DHT22;848;48.354;10.064;2024-03-06T10:18:35;7.40;99.90
1702;DHT22;848;48.354;10.064;2024-03-06T10:21:04;7.30;99.90
1702;DHT22;848;48.354;10.064;2024-03-06T10:23:34;7.40;99.90
1702;DHT22;848;48.354;10.064;2024-03-06T10:26:02;7.30;99.90
1702;DHT22;848;48.354;10.064;2024-03-06T10:28:33;7.40;99.90
1702;DHT22;848;48.354;10.064;2024-03-06T10:31:04;7.40;99.90
1702;DHT22;848;48.354;10.064;2024-03-06T10:33:34;7.40;99.90
1702;DHT22;848;48.354;10.064;2024-03-06T10:36:01;7.40;99.90
1702;DHT22;848;48.354;10.064;2024-03-06T10:38:33;7.40;99.90
1702;DHT22;848;48.354;10.064;2024-03-06T10:41:02;7.40;99.90
1702;DHT22;848;48.354;10.064;2024-03-06T10:43:33;7.40;99.90
1702;DHT22;848;48.354;10.064;2024-03-06T10:46:05;7.30;99.90
1702;DHT22;848;48.354;10.064;2024-03-06T10:48:33;7.50;99.90
1702;DHT22;848;48.354;10.064;2024-03-06T10:51:01;7.20;99.90
1702;DHT22;848;48.354;10.064;2024-03-06T10:53:29;7.20;99.90
1702;DHT22;848;48.354;10.064;2024-03-06T10:56:00;7.10;99.90
1702;DHT22;848;48.354;10.064;2024-03-06T10:58:29;7.10;99.90
1702;DHT22;848;48.354;10.064;2024-03-06T11:00:57;7.20;99.90
1702;DHT22;848;48.354;10.064;2024-03-06T11:03:25;7.30;99.90
1702;DHT22;848;48.354;10.064;2024-03-06T11:05:56;7.40;99.90
1702;DHT22;848;48.354;10.064;2024-03-06T11:08:23;7.50;99.90
1702;DHT22;848;48.354;10.064;2024-03-06T11:10:51;7.60;99.90
1702;DHT22;848;48.354;10.064;2024-03-06T11:13:23;7.60;99.90
1702;DHT22;848;48.354;10.064;2024-03-06T11:15:52;7.50;99.90
1702;DHT22;848;48.354;10.064;2024-03-06T11:18:41;7.50;99.90
1702;DHT22;848;48.354;10.064;2024-03-06T11:21:30;7.50;99.90
1702;DHT22;848;48.354;10.064;2024-03-06T11:24:20;7.40;99.90
1702;DHT22;848;48.354;10.064;2024-03-06T11:26:57;7.30;99.90
1702;DHT22;848;48.354;10.064;2024-03-06T11:29:28;7.40;99.90
1702;DHT22;848;48.354;10.064;2024-03-06T11:32:03;7.40;99.90
1702;DHT22;848;48.354;10.064;2024-03-06T11:34:33;7.60;99.90
1702;DHT22;848;48.354;10.064;2024-03-06T11:37:03;7.60;99.90
1702;DHT22;848;48.354;10.064;2024-03-06T11:39:33;7.70;99.90
1702;DHT22;848;48.354;10.064;2024-03-06T11:42:02;7.70;99.90
1702;DHT22;848;48.354;10.064;2024-03-06T11:44:32;7.70;99.90
1702;DHT22;848;48.354;10.064;2024-03-06T11:46:59;7.70;99.90
1702;DHT22;848;48.354;10.064;2024-03-06T11:49:27;7.70;99.90
1702;DHT22;848;48.354;10.064;2024-03-06T11:51:59;7.60;99.90
1702;DHT22;848;48.354;10.064;2024-03-06T11:54:26;7.60;99.90
1702;DHT22;848;48.354;10.064;2024-03-06T11:56:55;7.50;99.90
1702;DHT22;848;48.354;10.064;2024-03-06T11:59:22;7.70;99.90
1702;DHT22;848;48.354;10.064;2024-03-06T12:01:52;7.50;99.90
1702;DHT22;848;48.354;10.064;2024-03-06T12:04:19;7.60;99.90
1702;DHT22;848;48.354;10.064;2024-03-06T12:06:47;7.60;99.90
1702;DHT22;848;48.354;10.064;2024-03-06T12:09:15;7.70;99.90
1702;DHT22;848;48.354;10.064;2024-03-06T12:11:42;7.60;99.90
1702;DHT22;848;48.354;10.064;2024-03-06T12:14:13;7.80;99.90
1702;DHT22;848;48.354;10.064;2024-03-06T12:16:42;7.80;99.90
1702;DHT22;848;48.354;10.064;2024-03-06T12:19:11;7.70;99.90
1702;DHT22;848;48.354;10.064;2024-03-06T12:21:39;7.70;99.90
1702;DHT22;848;48.354;10.064;2024-03-06T12:24:09;7.80;99.90
1702;DHT22;848;48.354;10.064;2024-03-06T12:26:37;7.70;99.90
1702;DHT22;848;48.354;10.064;2024-03-06T12:29:05;7.70;99.90
1702;DHT22;848;48.354;10.064;2024-03-06T12:31:33;7.80;99.90
1702;DHT22;848;48.354;10.064;2024-03-06T12:34:00;7.90;99.90
1702;DHT22;848;48.354;10.064;2024-03-06T12:36:30;7.80;99.90
1702;DHT22;848;48.354;10.064;2024-03-06T12:39:00;7.80;99.90
1702;DHT22;848;48.354;10.064;2024-03-06T12:41:27;7.70;99.90
1702;DHT22;848;48.354;10.064;2024-03-06T12:43:55;7.70;99.90
1702;DHT22;848;48.354;10.064;2024-03-06T12:46:22;7.70;99.90
1702;DHT22;848;48.354;10.064;2024-03-06T12:48:50;7.60;99.90
1702;DHT22;848;48.354;10.064;2024-03-06T12:51:17;7.50;99.90
1702;DHT22;848;48.354;10.064;2024-03-06T12:53:45;7.30;99.90
1702;DHT22;848;48.354;10.064;2024-03-06T12:56:13;7.40;99.90
1702;DHT22;848;48.354;10.064;2024-03-06T12:58:40;7.40;99.90
1702;DHT22;848;48.354;10.064;2024-03-06T13:01:07;7.40;99.90
1702;DHT22;848;48.354;10.064;2024-03-06T13:03:34;7.40;99.90
1702;DHT22;848;48.354;10.064;2024-03-06T13:06:01;7.60;99.90
1702;DHT22;848;48.354;10.064;2024-03-06T13:08:28;7.50;99.90
1702;DHT22;848;48.354;10.064;2024-03-06T13:10:59;7.50;99.90
1702;DHT22;848;48.354;10.064;2024-03-06T13:13:26;7.60;99.90
1702;DHT22;848;48.354;10.064;2024-03-06T13:15:55;7.60;99.90
1702;DHT22;848;48.354;10.064;2024-03-06T13:18:22;7.70;99.90
1702;DHT22;848;48.354;10.064;2024-03-06T13:20:49;7.90;99.90
1702;DHT22;848;48.354;10.064;2024-03-06T13:23:16;7.90;99.90
1702;DHT22;848;48.354;10.064;2024-03-06T13:25:43;7.90;99.90
1702;DHT22;848;48.354;10.064;2024-03-06T13:28:12;8.00;99.90
1702;DHT22;848;48.354;10.064;2024-03-06T13:30:39;8.20;99.90
1702;DHT22;848;48.354;10.064;2024-03-06T13:33:06;8.10;99.90
1702;DHT22;848;48.354;10.064;2024-03-06T13:35:33;8.00;99.90
1702;DHT22;848;48.354;10.064;2024-03-06T13:38:00;8.10;99.90
1702;DHT22;848;48.354;10.064;2024-03-06T13:40:28;8.00;99.90
1702;DHT22;848;48.354;10.064;2024-03-06T13:42:55;7.90;99.90
1702;DHT22;848;48.354;10.064;2024-03-06T13:45:23;7.90;99.90
1702;DHT22;848;48.354;10.064;2024-03-06T13:47:50;7.70;99.90
1702;DHT22;848;48.354;10.064;2024-03-06T13:50:17;7.70;99.90
1702;DHT22;848;48.354;10.064;2024-03-06T13:52:44;7.80;99.90
1702;DHT22;848;48.354;10.064;2024-03-06T13:55:11;7.90;99.90
1702;DHT22;848;48.354;10.064;2024-03-06T13:57:40;7.90;99.90
1702;DHT22;848;48.354;10.064;2024-03-06T14:00:10;8.00;99.90
1702;DHT22;848;48.354;10.064;2024-03-06T14:02:45;8.00;99.90
1702;DHT22;848;48.354;10.064;2024-03-06T14:05:12;8.00;99.90
1702;DHT22;848;48.354;10.064;2024-03-06T14:07:40;8.00;99.90
1702;DHT22;848;48.354;10.064;2024-03-06T14:10:08;8.00;99.90
1702;DHT22;848;48.354;10.064;2024-03-06T14:12:35;8.00;99.90
1702;DHT22;848;48.354;10.064;2024-03-06T14:15:03;7.90;99.90
1702;DHT22;848;48.354;10.064;2024-03-06T14:17:30;7.90;99.90
1702;DHT22;848;48.354;10.064;2024-03-06T14:19:59;8.00;99.90
1702;DHT22;848;48.354;10.064;2024-03-06T14:22:25;8.00;99.90
1702;DHT22;848;48.354;10.064;2024-03-06T14:24:53;7.80;99.90
1702;DHT22;848;48.354;10.064;2024-03-06T14:27:20;7.70;99.90
1702;DHT22;848;48.354;10.064;2024-03-06T14:29:47;7.80;99.90
1702;DHT22;848;48.354;10.064;2024-03-06T14:32:14;7.70;99.90
1702;DHT22;848;48.354;10.064;2024-03-06T14:34:41;7.70;99.90
1702;DHT22;848;48.354;10.064;2024-03-06T14:37:10;7.60;99.90
1702;DHT22;848;48.354;10.064;2024-03-06T14:39:37;7.70;99.90
1702;DHT22;848;48.354;10.064;2024-03-06T14:42:06;7.70;99.90
1702;DHT22;848;48.354;10.064;2024-03-06T14:44:33;7.80;99.90
1702;DHT22;848;48.354;10.064;2024-03-06T14:47:00;7.80;99.90
1702;DHT22;848;48.354;10.064;2024-03-06T14:49:26;8.00;99.90
1702;DHT22;848;48.354;10.064;2024-03-06T14:51:53;8.00;99.90
1702;DHT22;848;48.354;10.064;2024-03-06T14:54:22;8.00;99.90
1702;DHT22;848;48.354;10.064;2024-03-06T14:56:51;8.10;99.90
1702;DHT22;848;48.354;10.064;2024-03-06T14:59:18;8.10;99.90
1702;DHT22;848;48.354;10.064;2024-03-06T15:01:45;8.10;99.90
1702;DHT22;848;48.354;10.064;2024-03-06T15:04:13;8.10;99.90
1702;DHT22;848;48.354;10.064;2024-03-06T15:06:40;8.10;99.90
1702;DHT22;848;48.354;10.064;2024-03-06T15:09:07;8.20;99.90
1702;DHT22;848;48.354;10.064;2024-03-06T15:11:38;8.00;99.90
1702;DHT22;848;48.354;10.064;2024-03-06T15:14:06;8.10;99.90
1702;DHT22;848;48.354;10.064;2024-03-06T15:16:33;8.20;99.90
1702;DHT22;848;48.354;10.064;2024-03-06T15:19:01;8.10;99.90
1702;DHT22;848;48.354;10.064;2024-03-06T15:21:29;8.10;99.90
1702;DHT22;848;48.354;10.064;2024-03-06T15:23:56;8.10;99.90
1702;DHT22;848;48.354;10.064;2024-03-06T15:26:23;8.00;99.90
1702;DHT22;848;48.354;10.064;2024-03-06T15:28:51;7.90;99.90
1702;DHT22;848;48.354;10.064;2024-03-06T15:31:19;7.90;99.90
1702;DHT22;848;48.354;10.064;2024-03-06T15:33:46;7.90;99.90
1702;DHT22;848;48.354;10.064;2024-03-06T15:36:14;7.90;99.90
1702;DHT22;848;48.354;10.064;2024-03-06T15:38:41;7.80;99.90
1702;DHT22;848;48.354;10.064;2024-03-06T15:41:08;7.80;99.90
1702;DHT22;848;48.354;10.064;2024-03-06T15:43:35;7.80;99.90
1702;DHT22;848;48.354;10.064;2024-03-06T15:46:04;7.80;99.90
1702;DHT22;848;48.354;10.064;2024-03-06T15:48:31;7.90;99.90
1702;DHT22;848;48.354;10.064;2024-03-06T15:50:59;7.90;99.90
1702;DHT22;848;48.354;10.064;2024-03-06T15:53:26;8.00;99.90
1702;DHT22;848;48.354;10.064;2024-03-06T15:55:55;7.90;99.90
1702;DHT22;848;48.354;10.064;2024-03-06T15:58:22;7.90;99.90
1702;DHT22;848;48.354;10.064;2024-03-06T16:00:49;7.80;99.90
1702;DHT22;848;48.354;10.064;2024-03-06T16:03:18;7.70;99.90
1702;DHT22;848;48.354;10.064;2024-03-06T16:05:44;7.70;99.90
1702;DHT22;848;48.354;10.064;2024-03-06T16:08:11;7.70;99.90
1702;DHT22;848;48.354;10.064;2024-03-06T16:10:38;7.70;99.90
1702;DHT22;848;48.354;10.064;2024-03-06T16:13:05;7.80;99.90
1702;DHT22;848;48.354;10.064;2024-03-06T16:15:32;7.80;99.90
1702;DHT22;848;48.354;10.064;2024-03-06T16:17:59;7.90;99.90
1702;DHT22;848;48.354;10.064;2024-03-06T16:20:30;7.90;99.90
1702;DHT22;848;48.354;10.064;2024-03-06T16:22:57;7.90;99.90